sensor_id;sensor_type;location;lat;lon;timestamp;P1;durP1;ratioP1;P2;durP2;ratioP2
2305;SDS011;1161;51.922;8.896;2023-04-24T00:01:32;1.00;;;1.00;;
2305;SDS011;1161;51.922;8.896;2023-04-24T00:03:59;1.37;;;1.10;;
2305;SDS011;1161;51.922;8.896;2023-04-24T00:06:26;1.23;;;1.23;;
2305;SDS011;1161;51.922;8.896;2023-04-24T00:08:58;1.83;;;0.80;;
2305;SDS011;1161;51.922;8.896;2023-04-24T00:11:24;0.77;;;0.77;;
2305;SDS011;1161;51.922;8.896;2023-04-24T00:13:52;1.10;;;1.10;;
2305;SDS011;1161;51.922;8.896;2023-04-24T00:16:19;9.50;;;1.03;;
2305;SDS011;1161;51.922;8.896;2023-04-24T00:18:45;1.17;;;1.10;;
2305;SDS011;1161;51.922;8.896;2023-04-24T00:21:12;3.40;;;1.17;;
2305;SDS011;1161;51.922;8.896;2023-04-24T00:23:40;0.90;;;0.90;;
2305;SDS011;1161;51.922;8.896;2023-04-24T00:26:06;2.37;;;1.47;;
2305;SDS011;1161;51.922;8.896;2023-04-24T00:28:33;0.97;;;0.97;;
2305;SDS011;1161;51.922;8.896;2023-04-24T00:31:01;1.17;;;0.93;;
2305;SDS011;1161;51.922;8.896;2023-04-24T00:33:27;1.83;;;1.20;;
2305;SDS011;1161;51.922;8.896;2023-04-24T00:35:54;1.00;;;1.00;;
2305;SDS011;1161;51.922;8.896;2023-04-24T00:38:20;0.80;;;0.80;;
2305;SDS011;1161;51.922;8.896;2023-04-24T00:40:47;0.90;;;0.90;;
2305;SDS011;1161;51.922;8.896;2023-04-24T00:43:15;2.30;;;1.10;;
2305;SDS011;1161;51.922;8.896;2023-04-24T00:45:41;0.90;;;0.90;;
2305;SDS011;1161;51.922;8.896;2023-04-24T00:48:09;3.90;;;1.00;;
2305;SDS011;1161;51.922;8.896;2023-04-24T00:50:38;1.00;;;1.00;;
2305;SDS011;1161;51.922;8.896;2023-04-24T00:53:04;1.30;;;1.30;;
2305;SDS011;1161;51.922;8.896;2023-04-24T00:55:31;0.80;;;0.80;;
2305;SDS011;1161;51.922;8.896;2023-04-24T00:57:58;0.97;;;0.97;;
2305;SDS011;1161;51.922;8.896;2023-04-24T01:00:25;1.70;;;0.87;;
2305;SDS011;1161;51.922;8.896;2023-04-24T01:02:51;1.40;;;1.30;;
2305;SDS011;1161;51.922;8.896;2023-04-24T01:05:20;0.93;;;0.93;;
2305;SDS011;1161;51.922;8.896;2023-04-24T01:07:47;1.00;;;1.00;;
2305;SDS011;1161;51.922;8.896;2023-04-24T01:10:14;1.00;;;1.00;;
2305;SDS011;1161;51.922;8.896;2023-04-24T01:12:42;1.00;;;1.00;;
2305;SDS011;1161;51.922;8.896;2023-04-24T01:15:09;1.00;;;1.00;;
2305;SDS011;1161;51.922;8.896;2023-04-24T01:17:36;1.73;;;1.03;;
2305;SDS011;1161;51.922;8.896;2023-04-24T01:20:04;1.27;;;1.17;;
2305;SDS011;1161;51.922;8.896;2023-04-24T01:22:33;1.40;;;1.30;;
2305;SDS011;1161;51.922;8.896;2023-04-24T01:25:00;1.33;;;1.00;;
2305;SDS011;1161;51.922;8.896;2023-04-24T01:27:27;1.53;;;1.53;;
2305;SDS011;1161;51.922;8.896;2023-04-24T01:29:54;0.80;;;0.80;;
2305;SDS011;1161;51.922;8.896;2023-04-24T01:32:20;0.67;;;0.67;;
2305;SDS011;1161;51.922;8.896;2023-04-24T01:34:47;1.33;;;0.70;;
2305;SDS011;1161;51.922;8.896;2023-04-24T01:37:14;0.93;;;0.70;;
2305;SDS011;1161;51.922;8.896;2023-04-24T01:39:43;3.50;;;1.37;;
2305;SDS011;1161;51.922;8.896;2023-04-24T01:42:09;1.40;;;0.97;;
2305;SDS011;1161;51.922;8.896;2023-04-24T01:44:36;1.10;;;1.03;;
2305;SDS011;1161;51.922;8.896;2023-04-24T01:47:03;1.80;;;0.97;;
2305;SDS011;1161;51.922;8.896;2023-04-24T01:49:30;0.80;;;0.80;;
2305;SDS011;1161;51.922;8.896;2023-04-24T01:51:56;1.10;;;1.10;;
2305;SDS011;1161;51.922;8.896;2023-04-24T01:54:23;1.90;;;0.90;;
2305;SDS011;1161;51.922;8.896;2023-04-24T01:56:51;0.80;;;0.80;;
2305;SDS011;1161;51.922;8.896;2023-04-24T01:59:19;1.50;;;1.40;;
2305;SDS011;1161;51.922;8.896;2023-04-24T02:01:47;0.90;;;0.90;;
2305;SDS011;1161;51.922;8.896;2023-04-24T02:04:13;1.43;;;1.43;;
2305;SDS011;1161;51.922;8.896;2023-04-24T02:06:40;0.90;;;0.90;;
2305;SDS011;1161;51.922;8.896;2023-04-24T02:09:07;1.13;;;1.13;;
2305;SDS011;1161;51.922;8.896;2023-04-24T02:11:34;1.90;;;1.20;;
2305;SDS011;1161;51.922;8.896;2023-04-24T02:14:02;1.03;;;1.03;;
2305;SDS011;1161;51.922;8.896;2023-04-24T02:16:29;0.80;;;0.80;;
2305;SDS011;1161;51.922;8.896;2023-04-24T02:18:58;1.27;;;1.20;;
2305;SDS011;1161;51.922;8.896;2023-04-24T02:21:24;0.80;;;0.80;;
2305;SDS011;1161;51.922;8.896;2023-04-24T02:23:52;2.10;;;1.20;;
2305;SDS011;1161;51.922;8.896;2023-04-24T02:26:19;0.90;;;0.90;;
2305;SDS011;1161;51.922;8.896;2023-04-24T02:28:45;1.57;;;1.07;;
2305;SDS011;1161;51.922;8.896;2023-04-24T02:31:13;1.10;;;1.10;;
2305;SDS011;1161;51.922;8.896;2023-04-24T02:33:40;1.13;;;0.90;;
2305;SDS011;1161;51.922;8.896;2023-04-24T02:36:07;1.03;;;1.00;;
2305;SDS011;1161;51.922;8.896;2023-04-24T02:38:34;0.77;;;0.77;;
2305;SDS011;1161;51.922;8.896;2023-04-24T02:41:01;1.90;;;1.17;;
2305;SDS011;1161;51.922;8.896;2023-04-24T02:43:31;0.77;;;0.77;;
2305;SDS011;1161;51.922;8.896;2023-04-24T02:45:59;1.23;;;1.13;;
2305;SDS011;1161;51.922;8.896;2023-04-24T02:48:27;1.00;;;1.00;;
2305;SDS011;1161;51.922;8.896;2023-04-24T02:50:54;1.23;;;1.03;;
2305;SDS011;1161;51.922;8.896;2023-04-24T02:53:22;2.57;;;1.20;;
2305;SDS011;1161;51.922;8.896;2023-04-24T02:55:50;1.27;;;1.17;;
2305;SDS011;1161;51.922;8.896;2023-04-24T02:58:16;1.50;;;1.50;;
2305;SDS011;1161;51.922;8.896;2023-04-24T03:00:46;1.50;;;1.20;;
2305;SDS011;1161;51.922;8.896;2023-04-24T03:03:13;1.20;;;1.10;;
2305;SDS011;1161;51.922;8.896;2023-04-24T03:05:41;2.67;;;1.13;;
2305;SDS011;1161;51.922;8.896;2023-04-24T03:08:09;1.60;;;1.40;;
2305;SDS011;1161;51.922;8.896;2023-04-24T03:10:36;1.20;;;1.20;;
2305;SDS011;1161;51.922;8.896;2023-04-24T03:13:03;1.10;;;1.10;;
2305;SDS011;1161;51.922;8.896;2023-04-24T03:15:31;1.33;;;1.23;;
2305;SDS011;1161;51.922;8.896;2023-04-24T03:17:58;7.20;;;1.27;;
2305;SDS011;1161;51.922;8.896;2023-04-24T03:20:26;1.00;;;1.00;;
2305;SDS011;1161;51.922;8.896;2023-04-24T03:22:54;0.93;;;0.93;;
2305;SDS011;1161;51.922;8.896;2023-04-24T03:25:22;0.70;;;0.70;;
2305;SDS011;1161;51.922;8.896;2023-04-24T03:27:49;0.83;;;0.83;;
2305;SDS011;1161;51.922;8.896;2023-04-24T03:30:16;1.00;;;1.00;;
2305;SDS011;1161;51.922;8.896;2023-04-24T03:32:44;1.07;;;1.07;;
2305;SDS011;1161;51.922;8.896;2023-04-24T03:35:10;0.97;;;0.97;;
2305;SDS011;1161;51.922;8.896;2023-04-24T03:37:39;3.13;;;1.50;;
2305;SDS011;1161;51.922;8.896;2023-04-24T03:40:08;0.73;;;0.73;;
2305;SDS011;1161;51.922;8.896;2023-04-24T03:42:36;0.83;;;0.83;;
2305;SDS011;1161;51.922;8.896;2023-04-24T03:45:03;1.20;;;1.20;;
2305;SDS011;1161;51.922;8.896;2023-04-24T03:47:30;2.00;;;1.03;;
2305;SDS011;1161;51.922;8.896;2023-04-24T03:49:57;2.20;;;1.27;;
2305;SDS011;1161;51.922;8.896;2023-04-24T03:52:24;7.90;;;1.70;;
2305;SDS011;1161;51.922;8.896;2023-04-24T03:54:52;3.40;;;1.27;;
2305;SDS011;1161;51.922;8.896;2023-04-24T03:57:20;1.07;;;1.07;;
2305;SDS011;1161;51.922;8.896;2023-04-24T03:59:47;1.47;;;1.47;;
2305;SDS011;1161;51.922;8.896;2023-04-24T04:02:15;2.00;;;1.90;;
2305;SDS011;1161;51.922;8.896;2023-04-24T04:04:42;1.97;;;1.73;;
2305;SDS011;1161;51.922;8.896;2023-04-24T04:07:12;8.13;;;2.60;;
2305;SDS011;1161;51.922;8.896;2023-04-24T04:09:39;2.03;;;1.87;;
2305;SDS011;1161;51.922;8.896;2023-04-24T04:12:09;1.93;;;1.83;;
2305;SDS011;1161;51.922;8.896;2023-04-24T04:14:37;2.10;;;2.00;;
2305;SDS011;1161;51.922;8.896;2023-04-24T04:17:04;5.47;;;3.03;;
2305;SDS011;1161;51.922;8.896;2023-04-24T04:19:31;2.43;;;2.27;;
2305;SDS011;1161;51.922;8.896;2023-04-24T04:21:58;3.10;;;2.30;;
2305;SDS011;1161;51.922;8.896;2023-04-24T04:24:30;2.47;;;2.37;;
2305;SDS011;1161;51.922;8.896;2023-04-24T04:26:57;2.50;;;2.40;;
2305;SDS011;1161;51.922;8.896;2023-04-24T04:29:27;2.70;;;2.50;;
2305;SDS011;1161;51.922;8.896;2023-04-24T04:31:55;3.47;;;2.30;;
2305;SDS011;1161;51.922;8.896;2023-04-24T04:34:23;2.67;;;2.57;;
2305;SDS011;1161;51.922;8.896;2023-04-24T04:36:51;2.90;;;2.60;;
2305;SDS011;1161;51.922;8.896;2023-04-24T04:39:18;5.30;;;2.50;;
2305;SDS011;1161;51.922;8.896;2023-04-24T04:41:46;3.30;;;3.00;;
2305;SDS011;1161;51.922;8.896;2023-04-24T04:44:17;3.30;;;3.00;;
2305;SDS011;1161;51.922;8.896;2023-04-24T04:46:49;2.67;;;2.47;;
2305;SDS011;1161;51.922;8.896;2023-04-24T04:49:20;2.77;;;2.57;;
2305;SDS011;1161;51.922;8.896;2023-04-24T04:51:54;2.37;;;2.27;;
2305;SDS011;1161;51.922;8.896;2023-04-24T04:54:22;2.40;;;2.20;;
2305;SDS011;1161;51.922;8.896;2023-04-24T04:56:50;2.97;;;2.73;;
2305;SDS011;1161;51.922;8.896;2023-04-24T04:59:18;3.23;;;2.67;;
2305;SDS011;1161;51.922;8.896;2023-04-24T05:01:46;2.27;;;2.27;;
2305;SDS011;1161;51.922;8.896;2023-04-24T05:04:14;4.73;;;3.33;;
2305;SDS011;1161;51.922;8.896;2023-04-24T05:06:43;10.23;;;2.87;;
2305;SDS011;1161;51.922;8.896;2023-04-24T05:09:11;3.10;;;2.07;;
2305;SDS011;1161;51.922;8.896;2023-04-24T05:11:38;2.70;;;2.53;;
2305;SDS011;1161;51.922;8.896;2023-04-24T05:14:05;4.13;;;2.57;;
2305;SDS011;1161;51.922;8.896;2023-04-24T05:16:33;5.87;;;3.00;;
2305;SDS011;1161;51.922;8.896;2023-04-24T05:19:03;16.27;;;6.00;;
2305;SDS011;1161;51.922;8.896;2023-04-24T05:21:30;3.13;;;2.70;;
2305;SDS011;1161;51.922;8.896;2023-04-24T05:24:00;5.27;;;3.30;;
2305;SDS011;1161;51.922;8.896;2023-04-24T05:26:27;2.37;;;2.23;;
2305;SDS011;1161;51.922;8.896;2023-04-24T05:28:54;4.87;;;2.97;;
2305;SDS011;1161;51.922;8.896;2023-04-24T05:31:22;13.83;;;8.50;;
2305;SDS011;1161;51.922;8.896;2023-04-24T05:33:51;16.77;;;10.47;;
2305;SDS011;1161;51.922;8.896;2023-04-24T05:36:19;15.83;;;9.90;;
2305;SDS011;1161;51.922;8.896;2023-04-24T05:38:50;14.30;;;9.73;;
2305;SDS011;1161;51.922;8.896;2023-04-24T05:41:18;17.70;;;10.17;;
2305;SDS011;1161;51.922;8.896;2023-04-24T05:43:45;20.20;;;10.83;;
2305;SDS011;1161;51.922;8.896;2023-04-24T05:46:13;15.83;;;11.67;;
2305;SDS011;1161;51.922;8.896;2023-04-24T05:48:40;17.27;;;12.03;;
2305;SDS011;1161;51.922;8.896;2023-04-24T05:51:07;15.03;;;10.17;;
2305;SDS011;1161;51.922;8.896;2023-04-24T05:53:37;18.47;;;11.53;;
2305;SDS011;1161;51.922;8.896;2023-04-24T05:56:05;19.43;;;11.83;;
2305;SDS011;1161;51.922;8.896;2023-04-24T05:58:34;17.03;;;10.83;;
2305;SDS011;1161;51.922;8.896;2023-04-24T06:01:01;21.47;;;11.47;;
2305;SDS011;1161;51.922;8.896;2023-04-24T06:03:28;21.20;;;10.90;;
2305;SDS011;1161;51.922;8.896;2023-04-24T06:05:55;21.97;;;12.07;;
2305;SDS011;1161;51.922;8.896;2023-04-24T06:08:22;22.67;;;11.70;;
2305;SDS011;1161;51.922;8.896;2023-04-24T06:10:50;16.13;;;9.63;;
2305;SDS011;1161;51.922;8.896;2023-04-24T06:13:18;18.30;;;11.77;;
2305;SDS011;1161;51.922;8.896;2023-04-24T06:15:48;16.73;;;9.50;;
2305;SDS011;1161;51.922;8.896;2023-04-24T06:18:15;14.10;;;10.07;;
2305;SDS011;1161;51.922;8.896;2023-04-24T06:20:42;14.27;;;9.83;;
2305;SDS011;1161;51.922;8.896;2023-04-24T06:23:09;17.17;;;9.53;;
2305;SDS011;1161;51.922;8.896;2023-04-24T06:25:36;16.60;;;9.77;;
2305;SDS011;1161;51.922;8.896;2023-04-24T06:28:05;18.10;;;9.50;;
2305;SDS011;1161;51.922;8.896;2023-04-24T06:30:31;17.90;;;10.60;;
2305;SDS011;1161;51.922;8.896;2023-04-24T06:33:00;18.27;;;10.50;;
2305;SDS011;1161;51.922;8.896;2023-04-24T06:35:28;15.60;;;10.20;;
2305;SDS011;1161;51.922;8.896;2023-04-24T06:37:55;15.07;;;8.30;;
2305;SDS011;1161;51.922;8.896;2023-04-24T06:40:23;13.87;;;8.60;;
2305;SDS011;1161;51.922;8.896;2023-04-24T06:42:51;21.73;;;10.67;;
2305;SDS011;1161;51.922;8.896;2023-04-24T06:45:19;18.03;;;10.57;;
2305;SDS011;1161;51.922;8.896;2023-04-24T06:47:46;15.90;;;10.53;;
2305;SDS011;1161;51.922;8.896;2023-04-24T06:50:14;20.80;;;10.47;;
2305;SDS011;1161;51.922;8.896;2023-04-24T06:52:42;28.33;;;13.17;;
2305;SDS011;1161;51.922;8.896;2023-04-24T06:55:09;33.43;;;14.73;;
2305;SDS011;1161;51.922;8.896;2023-04-24T06:57:36;18.30;;;11.70;;
2305;SDS011;1161;51.922;8.896;2023-04-24T07:00:03;21.63;;;12.23;;
2305;SDS011;1161;51.922;8.896;2023-04-24T07:02:31;23.87;;;12.90;;
2305;SDS011;1161;51.922;8.896;2023-04-24T07:04:58;29.73;;;14.20;;
2305;SDS011;1161;51.922;8.896;2023-04-24T07:07:26;38.60;;;17.90;;
2305;SDS011;1161;51.922;8.896;2023-04-24T07:09:53;33.93;;;16.60;;
2305;SDS011;1161;51.922;8.896;2023-04-24T07:12:21;31.23;;;15.13;;
2305;SDS011;1161;51.922;8.896;2023-04-24T07:14:48;37.03;;;16.50;;
2305;SDS011;1161;51.922;8.896;2023-04-24T07:17:14;21.13;;;12.03;;
2305;SDS011;1161;51.922;8.896;2023-04-24T07:19:41;40.87;;;19.60;;
2305;SDS011;1161;51.922;8.896;2023-04-24T07:22:08;26.47;;;16.07;;
2305;SDS011;1161;51.922;8.896;2023-04-24T07:24:38;16.53;;;8.73;;
2305;SDS011;1161;51.922;8.896;2023-04-24T07:27:05;18.90;;;12.83;;
2305;SDS011;1161;51.922;8.896;2023-04-24T07:29:31;21.67;;;12.73;;
2305;SDS011;1161;51.922;8.896;2023-04-24T07:31:58;20.63;;;13.07;;
2305;SDS011;1161;51.922;8.896;2023-04-24T07:34:24;23.50;;;10.33;;
2305;SDS011;1161;51.922;8.896;2023-04-24T07:36:51;25.50;;;9.73;;
2305;SDS011;1161;51.922;8.896;2023-04-24T07:39:17;12.47;;;9.77;;
2305;SDS011;1161;51.922;8.896;2023-04-24T07:41:45;12.03;;;8.80;;
2305;SDS011;1161;51.922;8.896;2023-04-24T07:44:12;9.73;;;7.30;;
2305;SDS011;1161;51.922;8.896;2023-04-24T07:46:41;16.90;;;7.50;;
2305;SDS011;1161;51.922;8.896;2023-04-24T07:49:08;9.07;;;7.57;;
2305;SDS011;1161;51.922;8.896;2023-04-24T07:51:34;11.57;;;8.03;;
2305;SDS011;1161;51.922;8.896;2023-04-24T07:54:03;9.67;;;8.53;;
2305;SDS011;1161;51.922;8.896;2023-04-24T07:56:30;13.20;;;9.03;;
2305;SDS011;1161;51.922;8.896;2023-04-24T07:58:58;44.80;;;8.73;;
2305;SDS011;1161;51.922;8.896;2023-04-24T08:01:26;11.70;;;6.90;;
2305;SDS011;1161;51.922;8.896;2023-04-24T08:03:52;14.93;;;7.03;;
2305;SDS011;1161;51.922;8.896;2023-04-24T08:06:19;8.60;;;7.10;;
2305;SDS011;1161;51.922;8.896;2023-04-24T08:08:46;13.43;;;6.80;;
2305;SDS011;1161;51.922;8.896;2023-04-24T08:11:14;8.70;;;7.17;;
2305;SDS011;1161;51.922;8.896;2023-04-24T08:13:40;16.27;;;8.83;;
2305;SDS011;1161;51.922;8.896;2023-04-24T08:16:14;11.20;;;7.47;;
2305;SDS011;1161;51.922;8.896;2023-04-24T08:18:41;12.37;;;8.80;;
2305;SDS011;1161;51.922;8.896;2023-04-24T08:21:08;10.83;;;8.10;;
2305;SDS011;1161;51.922;8.896;2023-04-24T08:23:34;14.80;;;8.30;;
2305;SDS011;1161;51.922;8.896;2023-04-24T08:26:01;11.37;;;8.70;;
2305;SDS011;1161;51.922;8.896;2023-04-24T08:28:28;10.50;;;7.23;;
2305;SDS011;1161;51.922;8.896;2023-04-24T08:30:55;15.90;;;10.27;;
2305;SDS011;1161;51.922;8.896;2023-04-24T08:33:22;8.20;;;6.33;;
2305;SDS011;1161;51.922;8.896;2023-04-24T08:35:49;13.03;;;7.00;;
2305;SDS011;1161;51.922;8.896;2023-04-24T08:38:16;7.57;;;6.87;;
2305;SDS011;1161;51.922;8.896;2023-04-24T08:40:42;9.83;;;6.47;;
2305;SDS011;1161;51.922;8.896;2023-04-24T08:43:11;7.73;;;6.07;;
2305;SDS011;1161;51.922;8.896;2023-04-24T08:45:39;7.43;;;5.93;;
2305;SDS011;1161;51.922;8.896;2023-04-24T08:48:05;8.63;;;5.77;;
2305;SDS011;1161;51.922;8.896;2023-04-24T08:50:33;10.07;;;5.53;;
2305;SDS011;1161;51.922;8.896;2023-04-24T08:53:00;9.97;;;5.80;;
2305;SDS011;1161;51.922;8.896;2023-04-24T08:55:27;6.07;;;5.50;;
2305;SDS011;1161;51.922;8.896;2023-04-24T08:57:56;8.00;;;4.70;;
2305;SDS011;1161;51.922;8.896;2023-04-24T09:00:24;6.17;;;5.57;;
2305;SDS011;1161;51.922;8.896;2023-04-24T09:02:51;6.40;;;4.30;;
2305;SDS011;1161;51.922;8.896;2023-04-24T09:05:19;7.07;;;5.73;;
2305;SDS011;1161;51.922;8.896;2023-04-24T09:07:49;6.03;;;4.70;;
2305;SDS011;1161;51.922;8.896;2023-04-24T09:10:20;7.03;;;4.43;;
2305;SDS011;1161;51.922;8.896;2023-04-24T09:12:48;6.57;;;6.03;;
2305;SDS011;1161;51.922;8.896;2023-04-24T09:15:16;4.80;;;4.23;;
2305;SDS011;1161;51.922;8.896;2023-04-24T09:17:43;6.87;;;4.90;;
2305;SDS011;1161;51.922;8.896;2023-04-24T09:20:10;6.50;;;3.90;;
2305;SDS011;1161;51.922;8.896;2023-04-24T09:22:37;10.40;;;5.00;;
2305;SDS011;1161;51.922;8.896;2023-04-24T09:25:06;6.03;;;5.43;;
2305;SDS011;1161;51.922;8.896;2023-04-24T09:27:34;7.07;;;5.90;;
2305;SDS011;1161;51.922;8.896;2023-04-24T09:30:01;4.30;;;3.90;;
2305;SDS011;1161;51.922;8.896;2023-04-24T09:32:28;4.47;;;4.07;;
2305;SDS011;1161;51.922;8.896;2023-04-24T09:35:06;5.30;;;4.83;;
2305;SDS011;1161;51.922;8.896;2023-04-24T09:37:37;8.90;;;5.43;;
2305;SDS011;1161;51.922;8.896;2023-04-24T09:40:10;5.63;;;5.13;;
2305;SDS011;1161;51.922;8.896;2023-04-24T09:42:38;3.37;;;3.07;;
2305;SDS011;1161;51.922;8.896;2023-04-24T09:45:08;3.53;;;3.30;;
2305;SDS011;1161;51.922;8.896;2023-04-24T09:47:35;4.27;;;3.53;;
2305;SDS011;1161;51.922;8.896;2023-04-24T09:50:08;3.13;;;2.90;;
2305;SDS011;1161;51.922;8.896;2023-04-24T09:52:39;2.83;;;2.63;;
2305;SDS011;1161;51.922;8.896;2023-04-24T09:55:11;2.80;;;2.43;;
2305;SDS011;1161;51.922;8.896;2023-04-24T09:57:52;8.40;;;2.30;;
2305;SDS011;1161;51.922;8.896;2023-04-24T10:00:22;5.93;;;2.23;;
2305;SDS011;1161;51.922;8.896;2023-04-24T10:02:50;7.37;;;5.10;;
2305;SDS011;1161;51.922;8.896;2023-04-24T10:05:18;13.17;;;8.13;;
2305;SDS011;1161;51.922;8.896;2023-04-24T10:07:45;3.83;;;3.33;;
2305;SDS011;1161;51.922;8.896;2023-04-24T10:10:13;2.90;;;2.70;;
2305;SDS011;1161;51.922;8.896;2023-04-24T10:12:40;2.80;;;2.40;;
2305;SDS011;1161;51.922;8.896;2023-04-24T10:15:09;5.63;;;2.83;;
2305;SDS011;1161;51.922;8.896;2023-04-24T10:17:38;3.90;;;1.97;;
2305;SDS011;1161;51.922;8.896;2023-04-24T10:20:06;3.00;;;2.83;;
2305;SDS011;1161;51.922;8.896;2023-04-24T10:22:33;1.60;;;1.60;;
2305;SDS011;1161;51.922;8.896;2023-04-24T10:25:00;1.93;;;1.70;;
2305;SDS011;1161;51.922;8.896;2023-04-24T10:27:28;1.80;;;1.70;;
2305;SDS011;1161;51.922;8.896;2023-04-24T10:29:56;1.93;;;1.83;;
2305;SDS011;1161;51.922;8.896;2023-04-24T10:32:22;2.10;;;2.00;;
2305;SDS011;1161;51.922;8.896;2023-04-24T10:34:49;6.43;;;1.27;;
2305;SDS011;1161;51.922;8.896;2023-04-24T10:37:16;1.23;;;1.23;;
2305;SDS011;1161;51.922;8.896;2023-04-24T10:39:42;1.43;;;1.00;;
2305;SDS011;1161;51.922;8.896;2023-04-24T10:42:13;1.60;;;1.03;;
2305;SDS011;1161;51.922;8.896;2023-04-24T10:44:42;1.03;;;1.03;;
2305;SDS011;1161;51.922;8.896;2023-04-24T10:47:12;1.30;;;1.30;;
2305;SDS011;1161;51.922;8.896;2023-04-24T10:49:39;1.63;;;1.63;;
2305;SDS011;1161;51.922;8.896;2023-04-24T10:52:06;1.47;;;1.47;;
2305;SDS011;1161;51.922;8.896;2023-04-24T10:54:35;1.57;;;1.47;;
2305;SDS011;1161;51.922;8.896;2023-04-24T11:02:50;11.13;;;4.40;;
2305;SDS011;1161;51.922;8.896;2023-04-24T11:05:19;0.97;;;0.97;;
2305;SDS011;1161;51.922;8.896;2023-04-24T11:10:39;2.07;;;1.90;;
2305;SDS011;1161;51.922;8.896;2023-04-24T11:13:06;1.87;;;1.33;;
2305;SDS011;1161;51.922;8.896;2023-04-24T11:15:34;1.10;;;1.10;;
2305;SDS011;1161;51.922;8.896;2023-04-24T11:18:02;1.80;;;1.70;;
2305;SDS011;1161;51.922;8.896;2023-04-24T11:20:29;1.50;;;1.40;;
2305;SDS011;1161;51.922;8.896;2023-04-24T11:22:57;2.23;;;2.13;;
2305;SDS011;1161;51.922;8.896;2023-04-24T11:25:30;1.53;;;1.53;;
2305;SDS011;1161;51.922;8.896;2023-04-24T11:28:02;2.63;;;2.07;;
2305;SDS011;1161;51.922;8.896;2023-04-24T11:30:29;1.40;;;1.30;;
2305;SDS011;1161;51.922;8.896;2023-04-24T11:33:03;2.63;;;2.43;;
2305;SDS011;1161;51.922;8.896;2023-04-24T11:35:30;4.47;;;4.17;;
2305;SDS011;1161;51.922;8.896;2023-04-24T11:38:02;3.47;;;3.27;;
2305;SDS011;1161;51.922;8.896;2023-04-24T11:40:30;2.50;;;2.40;;
2305;SDS011;1161;51.922;8.896;2023-04-24T11:42:59;8.30;;;1.93;;
2305;SDS011;1161;51.922;8.896;2023-04-24T11:45:27;7.93;;;4.73;;
2305;SDS011;1161;51.922;8.896;2023-04-24T11:47:54;7.63;;;6.40;;
2305;SDS011;1161;51.922;8.896;2023-04-24T11:50:22;4.17;;;3.90;;
2305;SDS011;1161;51.922;8.896;2023-04-24T11:52:50;4.23;;;3.87;;
2305;SDS011;1161;51.922;8.896;2023-04-24T11:55:23;2.90;;;2.70;;
2305;SDS011;1161;51.922;8.896;2023-04-24T11:57:52;3.40;;;3.27;;
2305;SDS011;1161;51.922;8.896;2023-04-24T12:00:23;3.90;;;3.07;;
2305;SDS011;1161;51.922;8.896;2023-04-24T12:02:50;3.00;;;2.80;;
2305;SDS011;1161;51.922;8.896;2023-04-24T12:05:22;2.47;;;2.37;;
2305;SDS011;1161;51.922;8.896;2023-04-24T12:07:51;2.77;;;2.57;;
2305;SDS011;1161;51.922;8.896;2023-04-24T12:10:19;2.80;;;2.63;;
2305;SDS011;1161;51.922;8.896;2023-04-24T12:12:46;2.37;;;2.27;;
2305;SDS011;1161;51.922;8.896;2023-04-24T12:15:15;2.87;;;2.57;;
2305;SDS011;1161;51.922;8.896;2023-04-24T12:17:42;6.57;;;2.50;;
2305;SDS011;1161;51.922;8.896;2023-04-24T12:20:09;2.17;;;2.07;;
2305;SDS011;1161;51.922;8.896;2023-04-24T12:22:44;3.37;;;3.07;;
2305;SDS011;1161;51.922;8.896;2023-04-24T12:25:11;15.37;;;8.87;;
2305;SDS011;1161;51.922;8.896;2023-04-24T12:27:39;4.10;;;3.67;;
2305;SDS011;1161;51.922;8.896;2023-04-24T12:30:09;3.73;;;3.43;;
2305;SDS011;1161;51.922;8.896;2023-04-24T12:32:40;9.43;;;6.60;;
2305;SDS011;1161;51.922;8.896;2023-04-24T12:35:07;2.83;;;2.70;;
2305;SDS011;1161;51.922;8.896;2023-04-24T12:37:35;4.20;;;3.00;;
2305;SDS011;1161;51.922;8.896;2023-04-24T12:40:03;2.77;;;2.60;;
2305;SDS011;1161;51.922;8.896;2023-04-24T12:42:32;3.23;;;2.93;;
2305;SDS011;1161;51.922;8.896;2023-04-24T12:44:59;2.37;;;2.10;;
2305;SDS011;1161;51.922;8.896;2023-04-24T12:47:27;3.27;;;3.00;;
2305;SDS011;1161;51.922;8.896;2023-04-24T12:49:53;4.17;;;2.40;;
2305;SDS011;1161;51.922;8.896;2023-04-24T12:52:21;1.80;;;1.80;;
2305;SDS011;1161;51.922;8.896;2023-04-24T12:54:48;2.80;;;2.70;;
2305;SDS011;1161;51.922;8.896;2023-04-24T12:57:17;2.47;;;2.27;;
2305;SDS011;1161;51.922;8.896;2023-04-24T12:59:44;3.73;;;3.13;;
2305;SDS011;1161;51.922;8.896;2023-04-24T13:02:11;4.13;;;3.40;;
2305;SDS011;1161;51.922;8.896;2023-04-24T13:04:38;4.10;;;3.43;;
2305;SDS011;1161;51.922;8.896;2023-04-24T13:07:04;9.03;;;3.53;;
2305;SDS011;1161;51.922;8.896;2023-04-24T13:09:31;7.10;;;5.77;;
2305;SDS011;1161;51.922;8.896;2023-04-24T13:11:58;8.53;;;4.50;;
2305;SDS011;1161;51.922;8.896;2023-04-24T13:14:27;6.53;;;4.60;;
2305;SDS011;1161;51.922;8.896;2023-04-24T13:16:53;4.33;;;3.93;;
2305;SDS011;1161;51.922;8.896;2023-04-24T13:19:20;4.83;;;4.40;;
2305;SDS011;1161;51.922;8.896;2023-04-24T13:21:47;7.60;;;4.73;;
2305;SDS011;1161;51.922;8.896;2023-04-24T13:24:13;5.63;;;3.63;;
2305;SDS011;1161;51.922;8.896;2023-04-24T13:26:41;5.70;;;3.73;;
2305;SDS011;1161;51.922;8.896;2023-04-24T13:29:07;4.93;;;3.70;;
2305;SDS011;1161;51.922;8.896;2023-04-24T13:31:35;3.97;;;3.57;;
2305;SDS011;1161;51.922;8.896;2023-04-24T13:34:02;3.47;;;3.00;;
2305;SDS011;1161;51.922;8.896;2023-04-24T13:36:28;4.77;;;4.10;;
2305;SDS011;1161;51.922;8.896;2023-04-24T13:38:55;8.33;;;3.17;;
2305;SDS011;1161;51.922;8.896;2023-04-24T13:41:21;4.10;;;3.10;;
2305;SDS011;1161;51.922;8.896;2023-04-24T13:43:48;4.40;;;4.00;;
2305;SDS011;1161;51.922;8.896;2023-04-24T13:46:15;6.93;;;4.37;;
2305;SDS011;1161;51.922;8.896;2023-04-24T13:48:43;5.53;;;4.80;;
2305;SDS011;1161;51.922;8.896;2023-04-24T13:51:10;9.00;;;5.40;;
2305;SDS011;1161;51.922;8.896;2023-04-24T13:53:36;9.93;;;5.70;;
2305;SDS011;1161;51.922;8.896;2023-04-24T13:56:03;15.33;;;6.00;;
2305;SDS011;1161;51.922;8.896;2023-04-24T13:58:30;10.33;;;5.80;;
2305;SDS011;1161;51.922;8.896;2023-04-24T14:00:57;12.67;;;6.40;;
2305;SDS011;1161;51.922;8.896;2023-04-24T14:03:24;11.60;;;7.10;;
2305;SDS011;1161;51.922;8.896;2023-04-24T14:05:52;10.70;;;7.57;;
2305;SDS011;1161;51.922;8.896;2023-04-24T14:08:18;16.57;;;8.17;;
2305;SDS011;1161;51.922;8.896;2023-04-24T14:10:45;21.40;;;8.67;;
2305;SDS011;1161;51.922;8.896;2023-04-24T14:13:12;12.80;;;8.83;;
2305;SDS011;1161;51.922;8.896;2023-04-24T14:15:38;21.90;;;10.50;;
2305;SDS011;1161;51.922;8.896;2023-04-24T14:18:05;21.10;;;9.60;;
2305;SDS011;1161;51.922;8.896;2023-04-24T14:20:32;27.40;;;9.43;;
2305;SDS011;1161;51.922;8.896;2023-04-24T14:23:00;18.13;;;8.37;;
2305;SDS011;1161;51.922;8.896;2023-04-24T14:25:26;26.50;;;11.37;;
2305;SDS011;1161;51.922;8.896;2023-04-24T14:27:53;14.37;;;8.07;;
2305;SDS011;1161;51.922;8.896;2023-04-24T14:30:20;19.73;;;9.90;;
2305;SDS011;1161;51.922;8.896;2023-04-24T14:32:46;17.20;;;8.63;;
2305;SDS011;1161;51.922;8.896;2023-04-24T14:35:13;16.83;;;10.53;;
2305;SDS011;1161;51.922;8.896;2023-04-24T14:37:39;21.00;;;11.50;;
2305;SDS011;1161;51.922;8.896;2023-04-24T14:40:09;15.93;;;9.83;;
2305;SDS011;1161;51.922;8.896;2023-04-24T14:42:36;18.80;;;9.57;;
2305;SDS011;1161;51.922;8.896;2023-04-24T14:45:04;20.00;;;11.50;;
2305;SDS011;1161;51.922;8.896;2023-04-24T14:47:31;14.20;;;9.00;;
2305;SDS011;1161;51.922;8.896;2023-04-24T14:49:58;16.40;;;10.40;;
2305;SDS011;1161;51.922;8.896;2023-04-24T14:52:24;21.63;;;9.33;;
2305;SDS011;1161;51.922;8.896;2023-04-24T14:54:51;17.37;;;8.30;;
2305;SDS011;1161;51.922;8.896;2023-04-24T14:57:19;18.00;;;9.57;;
2305;SDS011;1161;51.922;8.896;2023-04-24T14:59:46;18.70;;;9.93;;
2305;SDS011;1161;51.922;8.896;2023-04-24T15:02:12;18.17;;;10.40;;
2305;SDS011;1161;51.922;8.896;2023-04-24T15:04:39;27.13;;;10.40;;
2305;SDS011;1161;51.922;8.896;2023-04-24T15:07:06;18.47;;;10.30;;
2305;SDS011;1161;51.922;8.896;2023-04-24T15:09:32;15.60;;;9.03;;
2305;SDS011;1161;51.922;8.896;2023-04-24T15:11:59;12.43;;;8.20;;
2305;SDS011;1161;51.922;8.896;2023-04-24T15:14:28;8.90;;;6.30;;
2305;SDS011;1161;51.922;8.896;2023-04-24T15:16:54;13.67;;;6.63;;
2305;SDS011;1161;51.922;8.896;2023-04-24T15:19:21;9.87;;;6.97;;
2305;SDS011;1161;51.922;8.896;2023-04-24T15:21:47;10.03;;;7.37;;